Weather observations for the past three days for
Fort Hood, Robert Gray AAF Ft Hood
| Date | Time (cdt) | Wind (mph) | Vis. (mi.) | Weather | Sky Cond. | Temperature (ºF) | Relative Humidity | Wind Chill (°F) | Heat Index (°F) | Pressure | Precipitation (in) | ||||||
|---|---|---|---|---|---|---|---|---|---|---|---|---|---|---|---|---|---|
| Air | Dwpt | 6 hour | altimeter (in) | sea level (mb) | 1 hr | 3 hr | 6 hr | ||||||||||
| Max. | Min. | ||||||||||||||||
| 08 | 06:55 | S 3 | 9.00 | Partly Cloudy | FEW019 SCT100 | 59 | 56.3 | 60.1 | 57.6 | 91% | 29.94 | 1013.4 | |||||
| 08 | 05:55 | Calm | 10.00 | Thunderstorm | OVC019 | 59.4 | 56.7 | 91% | 29.96 | 1014.0 | |||||||
| 08 | 04:55 | N 5 | 10.00 | Overcast | OVC021 | 59.2 | 57.2 | 93% | 29.97 | 1014.4 | |||||||
| 08 | 03:55 | N 7 | 10.00 | Overcast | OVC025 | 59.4 | 56.7 | 91% | 29.97 | 1014.4 | |||||||
| 08 | 02:55 | NE 6 | 10.00 | Mostly Cloudy | BKN022 | 58.1 | 56.3 | 94% | 29.94 | 1013.4 | |||||||
| 08 | 01:55 | Calm | 10.00 | A Few Clouds | FEW022 FEW260 | 58.8 | 57 | 94% | 29.97 | 1014.5 | |||||||
| 08 | 00:55 | N 7 | 10.00 | Fair | CLR | 58.3 | 55.9 | 65.3 | 58.1 | 92% | 29.98 | 1014.8 | |||||
| 07 | 23:55 | N 3 | 9.00 | Fair | CLR | 60.1 | 56.1 | 87% | 29.99 | 1015.1 | |||||||
| 07 | 22:55 | Calm | 10.00 | Fair | CLR | 61 | 56.7 | 86% | 29.99 | 1015.1 | |||||||
| 07 | 21:55 | Calm | 10.00 | A Few Clouds | FEW220 | 62.4 | 55 | 77% | 29.98 | 1014.8 | |||||||
| 07 | 20:55 | NE 3 | 10.00 | Partly Cloudy | SCT220 | 63.1 | 55 | 75% | 29.96 | 1014.1 | |||||||
| 07 | 19:55 | NE 5 | 9.00 | A Few Clouds | FEW230 | 64.8 | 55.6 | 72% | 29.95 | 1013.8 | |||||||
| 07 | 18:55 | E 3 | 10.00 | Fair | CLR | 65.5 | 52.5 | 68.7 | 62.6 | 63% | 29.99 | 1015.1 | |||||
| 07 | 17:55 | NE 8 | 9.00 | A Few Clouds | FEW200 | 66.6 | 52.7 | 61% | 29.99 | 1015.1 | |||||||
| 07 | 16:55 | NE 7 | 10.00 | Fair | CLR | 67.6 | 53.2 | 60% | 30.01 | 1015.7 | |||||||
| 07 | 15:55 | E 5 | 10.00 | Mostly Cloudy | BKN120 | 66 | 53.1 | 63% | 30.03 | 1016.4 | |||||||
| 07 | 14:55 | N 8 | 7.00 | Mostly Cloudy | SCT043 BKN070 BKN085 | 65.8 | 53.8 | 65% | 30.04 | 1016.8 | |||||||
| 07 | 13:55 | NE 9 | 10.00 | Fair | CLR | 63.3 | 52.2 | 67% | 30.04 | 1016.8 | |||||||
| 07 | 12:55 | NE 10 | 9.00 | A Few Clouds | FEW340 | 63.1 | 51.3 | 63.1 | 56.7 | 65% | 30.06 | 1017.5 | |||||
| 07 | 11:55 | E 8 | 10.00 | Fair | CLR | 61.9 | 50.7 | 67% | 30.09 | 1018.5 | |||||||
| 07 | 10:55 | NE 8 | 10.00 | A Few Clouds | FEW320 | 61.7 | 51.1 | 68% | 30.08 | 1018.2 | |||||||
| 07 | 09:56 | NE 12 | 10.00 | Mostly Cloudy | SCT160 BKN220 | 60.3 | 51.6 | 73% | 30.09 | 1018.5 | |||||||
| 07 | 09:55 | NE 12 | 10.00 | Mostly Cloudy | SCT160 BKN220 | 60.4 | 51.8 | 73% | 30.09 | 1018.5 | |||||||
| 07 | 08:55 | NE 18 G 23 | 10.00 | Mostly Cloudy | BKN012 BKN160 | 57.6 | 52.3 | 83% | 30.08 | 1018.3 | |||||||
| 07 | 07:55 | NE 8 G 18 | 9.00 | Overcast | OVC008 | 57.2 | 53.6 | 88% | 30.09 | 1018.6 | |||||||
| 07 | 06:55 | N 12 | 9.00 | Overcast | OVC007 | 56.7 | 53.8 | 59.9 | 56.5 | 90% | 30.07 | 1017.9 | |||||
| 07 | 05:55 | NE 7 | 10.00 | Overcast | OVC007 | 56.8 | 53.6 | 89% | 30.06 | 1017.6 | |||||||
| 07 | 04:55 | N 13 | 10.00 | Overcast | OVC009 | 57.7 | 54.1 | 88% | 30.04 | 1016.9 | |||||||
| 07 | 03:55 | N 9 | 10.00 | Overcast | OVC010 | 58.3 | 54.5 | 87% | 30.02 | 1016.2 | |||||||
| 07 | 02:55 | NE 9 | 10.00 | Overcast | OVC011 | 58.8 | 54.9 | 87% | 30 | 1015.5 | |||||||
| 07 | 01:55 | NE 10 | 10.00 | Overcast | OVC012 | 59.4 | 55.2 | 86% | 29.98 | 1014.9 | |||||||
| 07 | 00:55 | NE 12 | 10.00 | A Few Clouds | FEW180 | 59.9 | 54.7 | 62.6 | 59.9 | 83% | 30 | 1015.5 | |||||
| 06 | 23:55 | NE 9 | 10.00 | Partly Cloudy | SCT200 | 60.3 | 54.7 | 82% | 29.99 | 1015.1 | |||||||
| 06 | 22:55 | NE 12 | 10.00 | Overcast | BKN026 OVC220 | 60.6 | 55 | 82% | 29.98 | 1014.9 | |||||||
| 06 | 21:55 | NE 6 | 10.00 | Overcast | OVC023 | 61.2 | 55.9 | 83% | 29.99 | 1015.1 | |||||||
| 06 | 20:55 | N 6 | 10.00 | Overcast | OVC024 | 61 | 55.8 | 83% | 29.95 | 1013.8 | |||||||
| 06 | 19:55 | N 8 | 9.00 | Overcast | OVC025 | 61.9 | 56.3 | 82% | 29.93 | 1013.0 | |||||||
| 06 | 18:55 | N 9 | 7.00 | Overcast | BKN020 OVC026 | 61.3 | 55.4 | 61.7 | 57.9 | 81% | 29.9 | 1012.0 | |||||
| 06 | 17:55 | N 9 | 7.00 | Overcast | OVC017 | 61 | 55.4 | 82% | 29.91 | 1012.2 | |||||||
| 06 | 16:55 | N 13 | 7.00 | Overcast | OVC012 | 60.8 | 55.2 | 82% | 29.91 | 1012.1 | |||||||
| 06 | 15:55 | N 15 | 7.00 | Overcast | OVC011 | 60.8 | 55.6 | 83% | 29.92 | 1012.5 | |||||||
| 06 | 14:55 | N 15 | 6.00 | Fog/Mist | OVC009 | 59.5 | 55.4 | 86% | 29.93 | 1012.8 | |||||||
| 06 | 13:55 | N 17 | 5.00 | Fog/Mist | OVC009 | 58.3 | 54.1 | 86% | 29.93 | 1012.8 | |||||||
| 06 | 12:55 | N 14 | 6.00 | Overcast with Haze | OVC011 | 60.8 | 56.3 | 65.7 | 56.3 | 85% | 29.92 | 1012.5 | 0.01 | ||||
| 06 | 10:55 | N 9 | 4.00 | Thunderstorm in Vicinity Light Rain | BKN009 OVC019 | 56.5 | 54.1 | 92% | 29.91 | 1012.2 | 0.01 | ||||||
| 06 | 09:55 | N 21 | 1.50 | Thunderstorm Light Rain Fog/Mist and Breezy | OVC003 | 59 | 57 | 93% | 29.92 | 1012.5 | |||||||
| 06 | 08:55 | N 17 | 5.00 | Fog/Mist | OVC008 | 62.4 | 59.7 | 91% | 29.88 | 1011.0 | |||||||
| 06 | 07:55 | N 18 | 7.00 | Overcast | OVC008 | 64 | 61 | 90% | 29.84 | 1009.5 | |||||||
| 06 | 06:55 | NW 7 | 8.00 | Light Rain | OVC008 | 65.5 | 63.3 | 76.3 | 65.5 | 93% | 29.82 | 1008.7 | 0.01 | 0.01 | |||
| 06 | 05:55 | NW 8 | 4.00 | Fog/Mist | FEW014 OVC020 | 73 | 71.4 | 95% | 29.81 | 1008.2 | |||||||
| 06 | 04:55 | S 3 | 4.00 | Fog/Mist | FEW007 BKN013 OVC018 | 74.5 | 72.3 | 93% | 29.78 | 1007.1 | |||||||
| 06 | 03:55 | SE 6 | 8.00 | Overcast | OVC011 | 75.4 | 71.6 | 88% | 75 | 29.77 | 1006.8 | ||||||
| 06 | 02:55 | S 7 | 9.00 | Overcast | OVC013 | 75.9 | 71.8 | 87% | 76 | 29.77 | 1006.8 | ||||||
| 06 | 01:55 | S 3 | 8.00 | Overcast | OVC011 | 75.9 | 71.8 | 87% | 76 | 29.78 | 1007.2 | ||||||
| 06 | 00:55 | Calm | 8.00 | Overcast | OVC011 | 76.3 | 72.7 | 84.2 | 74.5 | 89% | 77 | 29.77 | 1006.8 | ||||
| 05 | 23:55 | S 10 | 9.00 | Fair | CLR | 75 | 71.4 | 89% | 74 | 29.75 | 1006.3 | ||||||
| 05 | 22:55 | S 7 | 9.00 | A Few Clouds | FEW190 | 76.6 | 71.8 | 85% | 78 | 29.75 | 0.0 | ||||||
| 05 | 21:55 | S 9 | 10.00 | A Few Clouds | FEW200 | 77 | 71.1 | 82% | 79 | 29.73 | 0.0 | ||||||
| 05 | 20:55 | SE 7 | 10.00 | Fair | CLR | 77.9 | 70.3 | 78% | 80 | 29.7 | 0.0 | ||||||
| 05 | 19:55 | SE 10 | 9.00 | Fair | CLR | 81.1 | 71.2 | 72% | 85 | 29.69 | 0.0 | ||||||
| 05 | 18:55 | SE 10 | 10.00 | Fair | CLR | 83.8 | 72.1 | 87.3 | 81.7 | 68% | 90 | 29.69 | 0.0 | ||||
| 05 | 16:55 | S 8 G 17 | 10.00 | A Few Clouds | FEW039 | 86 | 70.3 | 60% | 91 | 29.67 | 0.0 | ||||||
| 05 | 15:55 | S 10 | 10.00 | A Few Clouds | FEW290 | 86.7 | 70.5 | 59% | 92 | 29.7 | 0.0 | ||||||
| 05 | 14:55 | S 9 G 17 | 10.00 | A Few Clouds | FEW260 FEW320 FEW350 | 85.8 | 70.3 | 60% | 91 | 29.71 | 0.0 | ||||||
| 05 | 13:55 | S 13 G 23 | 10.00 | Partly Cloudy | FEW240 FEW260 FEW330 SCT360 | 83.7 | 70.5 | 65% | 88 | 29.73 | 0.0 | ||||||
| 05 | 12:55 | S 12 | 10.00 | Fair | CLR | 82.4 | 69.4 | 82.4 | 79.3 | 65% | 86 | 29.75 | 0.0 | ||||
| 05 | 10:55 | S 10 G 17 | 10.00 | Overcast | OVC020 | 79.9 | 69.6 | 71% | 83 | 29.76 | 1006.6 | ||||||
| 05 | 09:55 | S 9 G 20 | 10.00 | Overcast | OVC016 | 74.5 | 67.8 | 80% | 29.76 | 1006.7 | |||||||
| 05 | 08:55 | S 8 G 22 | 9.00 | Overcast | OVC015 | 72.9 | 67.3 | 83% | 29.75 | 1006.3 | |||||||
| 05 | 07:55 | S 12 | 9.00 | Overcast | OVC016 | 72.3 | 67.5 | 85% | 29.73 | 1005.6 | |||||||
| Date | Time (cdt) | Wind (mph) | Vis. (mi.) | Weather | Sky Cond. | Air | Dwpt | Max. | Min. | Relative Humidity | Wind Chill (°F) | Heat Index (°F) | altimeter (in) | sea level (mb) | 1 hr | 3 hr | 6 hr |
| 6 hour | |||||||||||||||||
| Temperature (ºF) | Pressure | Precipitation (in) | |||||||||||||||